Time;durP1;ratioP1;P1;durP2;ratioP2;P2;SDS_P1;SDS_P2;PMS_P1;PMS_P2;Temp;Humidity;BMP_temperature;BMP_pressure;BME280_temperature;BME280_humidity;BME280_pressure;Samples;Min_cycle;Max_cycle;Signal;HPM_P1;HPM_P2
2022/02/26 00:01:33;;;;;;;7.85;5.33;;;;;;;1.90;77.41;99676.11;1764818;80;21548;-69
2022/02/26 00:04:00;;;;;;;6.45;5.05;;;;;;;1.89;77.35;99678.36;1773008;80;21419;-70
2022/02/26 00:06:26;;;;;;;7.58;6.08;;;;;;;1.88;77.24;99680.14;1757007;80;20892;-70
2022/02/26 00:08:52;;;;;;;6.97;5.47;;;;;;;1.87;77.14;99686.82;1745916;80;21137;-70
2022/02/26 00:11:19;;;;;;;10.43;5.90;;;;;;;1.87;77.03;99685.51;1743825;82;20889;-70
2022/02/26 00:13:47;;;;;;;7.70;5.67;;;;;;;1.86;76.98;99693.00;1755477;80;20927;-70
2022/02/26 00:16:13;;;;;;;6.03;5.47;;;;;;;1.86;76.90;99692.53;1760997;80;21583;-70
2022/02/26 00:18:40;;;;;;;6.25;5.65;;;;;;;1.85;76.77;99696.59;1771473;80;20836;-68
2022/02/26 00:21:08;;;;;;;7.20;6.00;;;;;;;1.84;76.76;99701.47;1772897;80;21148;-69
2022/02/26 00:23:35;;;;;;;6.25;5.65;;;;;;;1.83;76.68;99702.40;1773598;80;20935;-70
2022/02/26 00:26:01;;;;;;;7.60;5.70;;;;;;;1.83;76.62;99702.40;1772850;80;20968;-70
2022/02/26 00:28:28;;;;;;;7.90;5.80;;;;;;;1.82;76.58;99705.98;1752015;80;20908;-70
2022/02/26 00:30:54;;;;;;;5.97;5.37;;;;;;;1.80;76.57;99705.23;1756395;80;21434;-70
2022/02/26 00:33:22;;;;;;;8.10;6.65;;;;;;;1.77;76.56;99704.17;1750666;80;21485;-71
2022/02/26 00:35:48;;;;;;;7.17;6.25;;;;;;;1.76;76.50;99705.95;1761920;80;20828;-70
2022/02/26 00:38:14;;;;;;;6.90;6.28;;;;;;;1.74;76.48;99709.63;1750490;80;20956;-70
2022/02/26 00:40:42;;;;;;;8.18;7.05;;;;;;;1.71;76.42;99712.00;1753034;80;20994;-70
2022/02/26 00:43:08;;;;;;;8.15;6.22;;;;;;;1.70;76.42;99715.55;1704788;84;20989;-70
2022/02/26 00:45:35;;;;;;;6.35;5.67;;;;;;;1.68;76.40;99721.39;1699082;84;21831;-70
2022/02/26 00:48:02;;;;;;;11.45;6.00;;;;;;;1.67;76.41;99719.70;1751526;81;20986;-70
2022/02/26 00:50:28;;;;;;;6.17;5.55;;;;;;;1.66;76.39;99723.30;1745092;80;21015;-70
2022/02/26 00:52:55;;;;;;;8.03;5.42;;;;;;;1.65;76.36;99724.23;1745937;80;21474;-71
2022/02/26 00:55:22;;;;;;;6.75;5.35;;;;;;;1.63;76.32;99722.19;1769983;80;20984;-69
2022/02/26 00:57:49;;;;;;;6.65;5.70;;;;;;;1.61;76.25;99723.25;1744325;80;21160;-70
2022/02/26 01:00:16;;;;;;;7.40;5.90;;;;;;;1.61;76.25;99729.80;1744430;80;21644;-71
2022/02/26 01:02:42;;;;;;;6.72;5.65;;;;;;;1.58;76.19;99729.55;1745832;80;21535;-71
2022/02/26 01:05:10;;;;;;;6.55;5.53;;;;;;;1.55;76.21;99729.76;1747908;80;20928;-71
2022/02/26 01:07:37;;;;;;;6.05;5.45;;;;;;;1.53;76.23;99730.81;1768096;80;20986;-70
2022/02/26 01:10:06;;;;;;;9.15;5.65;;;;;;;1.51;76.22;99727.47;1772926;80;21776;-70
2022/02/26 01:12:34;;;;;;;6.40;5.30;;;;;;;1.51;76.17;99732.71;1762440;80;22213;-70
2022/02/26 01:15:03;;;;;;;7.17;5.78;;;;;;;1.47;76.16;99735.16;1744000;82;20988;-70
2022/02/26 01:17:29;;;;;;;7.12;5.80;;;;;;;1.44;76.17;99733.59;1759406;80;20868;-71
2022/02/26 01:19:56;;;;;;;6.10;5.45;;;;;;;1.43;76.24;99737.64;1756789;80;20950;-71
2022/02/26 01:22:22;;;;;;;9.18;6.03;;;;;;;1.42;76.32;99745.98;1760884;80;21149;-70
2022/02/26 01:24:49;;;;;;;7.65;5.40;;;;;;;1.41;76.31;99744.78;1744359;80;20947;-71
2022/02/26 01:27:15;;;;;;;7.78;5.90;;;;;;;1.40;76.33;99745.25;1756254;80;21000;-70
2022/02/26 01:29:42;;;;;;;7.53;5.85;;;;;;;1.39;76.26;99745.34;1767039;80;21007;-69
2022/02/26 01:32:09;;;;;;;6.72;5.17;;;;;;;1.35;76.13;99741.27;1749247;80;20987;-69
2022/02/26 01:34:36;;;;;;;7.08;5.70;;;;;;;1.33;76.10;99741.86;1754773;80;21148;-69
2022/02/26 01:37:03;;;;;;;6.78;5.30;;;;;;;1.28;76.08;99736.91;1747654;80;21453;-69
2022/02/26 01:39:29;;;;;;;6.45;5.40;;;;;;;1.25;76.07;99739.27;1751290;80;20903;-69
2022/02/26 01:41:57;;;;;;;5.55;5.05;;;;;;;1.22;76.11;99738.66;1765340;80;20963;-69
2022/02/26 01:44:23;;;;;;;7.62;5.97;;;;;;;1.20;76.11;99736.59;1753419;80;20995;-70
2022/02/26 01:46:49;;;;;;;6.03;4.97;;;;;;;1.16;76.08;99739.91;1743083;80;21999;-70
2022/02/26 01:49:16;;;;;;;6.80;5.50;;;;;;;1.13;76.05;99735.34;1770712;80;20943;-70
2022/02/26 01:51:42;;;;;;;6.90;5.35;;;;;;;1.11;76.06;99743.78;1772060;80;20978;-70
2022/02/26 01:54:09;;;;;;;5.50;4.92;;;;;;;1.08;76.09;99734.82;1772799;80;20943;-70
2022/02/26 01:56:36;;;;;;;6.42;5.00;;;;;;;1.07;76.10;99739.72;1702685;80;20986;-70
2022/02/26 01:59:03;;;;;;;6.87;4.75;;;;;;;1.06;76.07;99741.95;1746595;81;21177;-70
2022/02/26 02:01:29;;;;;;;5.65;4.87;;;;;;;1.05;76.05;99746.35;1744010;82;20913;-70
2022/02/26 02:03:56;;;;;;;6.72;4.75;;;;;;;1.05;76.04;99750.28;1756757;80;20966;-70
2022/02/26 02:06:23;;;;;;;6.35;4.80;;;;;;;1.04;76.06;99745.16;1757901;80;20984;-70
2022/02/26 02:08:51;;;;;;;6.80;5.08;;;;;;;1.04;76.10;99747.78;1744092;81;21573;-70
2022/02/26 02:11:17;;;;;;;6.53;4.90;;;;;;;1.03;76.23;99742.16;1744507;80;21077;-69
2022/02/26 02:13:43;;;;;;;5.55;4.60;;;;;;;1.02;76.30;99744.39;1755589;80;20936;-69
2022/02/26 02:16:10;;;;;;;4.95;4.05;;;;;;;1.00;76.35;99744.52;1742005;80;21030;-70
2022/02/26 02:18:37;;;;;;;8.35;4.83;;;;;;;1.00;76.26;99744.98;1740539;80;20952;-69
2022/02/26 02:21:04;;;;;;;6.15;4.53;;;;;;;0.98;76.22;99750.34;1738751;81;21518;-69
2022/02/26 02:23:30;;;;;;;6.22;4.83;;;;;;;0.97;76.12;99755.20;1751623;80;21093;-70
2022/02/26 02:25:57;;;;;;;6.25;4.78;;;;;;;0.96;76.02;99752.23;1760275;80;21011;-70
2022/02/26 02:28:23;;;;;;;6.55;4.45;;;;;;;0.94;75.97;99759.33;1743548;80;21473;-70
2022/02/26 02:30:50;;;;;;;5.37;4.17;;;;;;;0.93;75.98;99764.22;1743132;82;20874;-70
2022/02/26 02:33:16;;;;;;;6.12;4.33;;;;;;;0.91;76.00;99764.80;1743169;82;21052;-70
2022/02/26 02:35:43;;;;;;;6.58;4.90;;;;;;;0.91;76.01;99768.73;1728992;82;21536;-71
2022/02/26 02:38:15;;;;;;;7.10;4.97;;;;;;;0.88;76.03;99768.92;1726778;82;21044;-70
2022/02/26 02:40:45;;;;;;;6.60;4.22;;;;;;;0.86;76.00;99777.33;1736440;82;20949;-70
2022/02/26 02:43:12;;;;;;;6.12;4.62;;;;;;;0.85;75.97;99778.30;1734237;82;21545;-70
2022/02/26 02:45:39;;;;;;;5.75;4.87;;;;;;;0.86;75.89;99782.57;1737676;82;21580;-69
2022/02/26 02:48:06;;;;;;;4.83;4.33;;;;;;;0.85;75.80;99781.38;1733030;81;21058;-70
2022/02/26 02:50:32;;;;;;;4.65;4.15;;;;;;;0.85;75.70;99783.53;1727905;82;21540;-70
2022/02/26 02:52:59;;;;;;;5.22;4.47;;;;;;;0.85;75.59;99795.32;1736969;82;20910;-70
2022/02/26 02:55:25;;;;;;;6.05;4.12;;;;;;;0.85;75.55;99796.63;1737704;82;20930;-70
2022/02/26 02:57:52;;;;;;;5.17;4.03;;;;;;;0.85;75.55;99803.18;1731301;81;21543;-70
2022/02/26 03:00:19;;;;;;;4.60;3.85;;;;;;;0.86;75.50;99801.41;1724038;82;21113;-70
2022/02/26 03:02:46;;;;;;;5.92;3.95;;;;;;;0.85;75.44;99804.48;1732117;82;20898;-70
2022/02/26 03:05:14;;;;;;;5.42;4.37;;;;;;;0.86;75.40;99807.95;1717337;82;21002;-70
2022/02/26 03:07:42;;;;;;;4.58;3.77;;;;;;;0.86;75.37;99810.08;1731002;82;21032;-69
2022/02/26 03:10:09;;;;;;;6.25;4.22;;;;;;;0.88;75.35;99811.30;1734476;82;21575;-69
2022/02/26 03:12:36;;;;;;;6.60;4.35;;;;;;;0.87;75.36;99811.77;1737235;82;22042;-69
2022/02/26 03:15:03;;;;;;;5.92;4.05;;;;;;;0.90;75.32;99819.89;1734847;82;20956;-69
2022/02/26 03:17:29;;;;;;;6.12;3.80;;;;;;;0.90;75.27;99823.36;1736943;82;20899;-69
2022/02/26 03:19:56;;;;;;;6.42;4.17;;;;;;;0.91;75.24;99828.98;1727825;82;21108;-69
2022/02/26 03:22:22;;;;;;;5.17;4.00;;;;;;;0.93;75.23;99833.64;1722538;82;20985;-69
2022/02/26 03:24:48;;;;;;;7.12;3.77;;;;;;;0.95;75.24;99827.82;1734043;82;21128;-70
2022/02/26 03:27:15;;;;;;;6.37;4.03;;;;;;;0.96;75.26;99830.82;1731008;82;20914;-70
2022/02/26 03:29:41;;;;;;;5.03;3.92;;;;;;;0.97;75.26;99829.86;1731096;82;20981;-71
2022/02/26 03:32:08;;;;;;;5.05;3.90;;;;;;;1.00;75.24;99837.52;1733473;82;21065;-71
2022/02/26 03:34:35;;;;;;;5.35;4.67;;;;;;;1.03;75.26;99837.33;1742639;81;20982;-69
2022/02/26 03:37:02;;;;;;;4.50;3.77;;;;;;;1.06;75.22;99837.59;1752991;81;21134;-69
2022/02/26 03:39:31;;;;;;;7.22;4.35;;;;;;;1.07;75.14;99844.03;1752850;80;21479;-70
2022/02/26 03:42:03;;;;;;;6.62;4.28;;;;;;;1.10;75.18;99844.30;1755756;81;20900;-70
2022/02/26 03:44:30;;;;;;;5.83;4.70;;;;;;;1.13;75.22;99850.64;1754014;80;20943;-70
2022/02/26 03:46:57;;;;;;;5.00;4.20;;;;;;;1.16;75.22;99852.60;1748703;81;20935;-70
2022/02/26 03:49:24;;;;;;;6.15;4.45;;;;;;;1.19;75.21;99862.04;1753114;81;21135;-69
2022/02/26 03:51:50;;;;;;;6.97;4.33;;;;;;;1.23;75.23;99859.11;1733965;81;20949;-69
2022/02/26 03:54:16;;;;;;;7.22;4.50;;;;;;;1.29;75.22;99865.72;1752000;80;21007;-70
2022/02/26 03:56:43;;;;;;;7.50;4.85;;;;;;;1.33;75.20;99863.75;1750833;80;21081;-69
2022/02/26 03:59:09;;;;;;;5.85;4.78;;;;;;;1.38;75.18;99860.34;1751054;81;21018;-69
2022/02/26 04:01:36;;;;;;;6.50;4.90;;;;;;;1.44;75.09;99866.00;1739306;82;21488;-70
2022/02/26 04:04:03;;;;;;;5.35;4.47;;;;;;;1.50;75.04;99866.05;1753398;81;20943;-70
2022/02/26 04:06:30;;;;;;;8.45;4.62;;;;;;;1.55;74.99;99869.20;1751605;80;21018;-70
2022/02/26 04:08:56;;;;;;;5.40;4.00;;;;;;;1.61;74.83;99870.11;1758767;81;20934;-71
2022/02/26 04:11:22;;;;;;;5.55;4.47;;;;;;;1.68;74.64;99872.67;1751266;80;20942;-70
2022/02/26 04:13:49;;;;;;;5.70;4.55;;;;;;;1.73;74.51;99880.59;1753219;81;21919;-70
2022/02/26 04:16:15;;;;;;;5.67;4.55;;;;;;;1.77;74.45;99879.42;1751041;80;21004;-70
2022/02/26 04:18:42;;;;;;;6.20;4.40;;;;;;;1.82;74.36;99877.83;1751032;81;21504;-70
2022/02/26 04:21:09;;;;;;;7.08;4.60;;;;;;;1.85;74.28;99883.67;1743740;80;20995;-69
2022/02/26 04:23:35;;;;;;;6.65;4.50;;;;;;;1.90;74.17;99883.38;1759086;80;21032;-69
2022/02/26 04:26:02;;;;;;;6.50;4.78;;;;;;;1.94;74.11;99894.02;1764609;80;21129;-70
2022/02/26 04:28:28;;;;;;;8.65;4.53;;;;;;;1.97;73.99;99890.34;1694201;84;21416;-71
2022/02/26 04:30:55;;;;;;;5.87;4.45;;;;;;;2.01;73.92;99895.27;1698121;83;20996;-70
2022/02/26 04:33:21;;;;;;;6.12;4.70;;;;;;;2.04;73.79;99901.62;1706050;82;21103;-70
2022/02/26 04:35:48;;;;;;;6.28;4.22;;;;;;;2.06;73.71;99898.91;1757204;80;21437;-70
2022/02/26 04:38:15;;;;;;;6.33;4.20;;;;;;;2.08;73.66;99902.25;1764286;81;21152;-70
2022/02/26 04:40:41;;;;;;;6.55;5.12;;;;;;;2.09;73.52;99902.14;1748690;81;20974;-70
2022/02/26 04:43:08;;;;;;;6.45;4.75;;;;;;;2.12;73.43;99913.73;1754860;80;21051;-70
2022/02/26 04:45:34;;;;;;;6.12;4.45;;;;;;;2.13;73.43;99912.80;1747667;80;21024;-70
2022/02/26 04:48:01;;;;;;;7.15;5.00;;;;;;;2.15;73.32;99910.06;1753556;81;21117;-70
2022/02/26 04:50:28;;;;;;;6.10;4.85;;;;;;;2.16;73.21;99915.22;1763902;80;21157;-70
2022/02/26 04:52:54;;;;;;;10.05;5.60;;;;;;;2.14;73.18;99915.78;1764154;81;20927;-70
2022/02/26 04:55:21;;;;;;;7.10;5.40;;;;;;;2.14;73.12;99922.84;1763515;80;20967;-69
2022/02/26 04:57:47;;;;;;;8.98;5.78;;;;;;;2.16;72.99;99935.38;1754403;81;21050;-70
2022/02/26 05:00:15;;;;;;;9.85;6.08;;;;;;;2.17;72.89;99933.09;1762377;81;21124;-69
2022/02/26 05:02:41;;;;;;;6.15;5.53;;;;;;;2.17;72.97;99936.56;1741917;81;22075;-71
2022/02/26 05:05:08;;;;;;;9.80;5.37;;;;;;;2.20;72.91;99929.80;1750464;81;20980;-70
2022/02/26 05:07:35;;;;;;;7.80;6.15;;;;;;;2.20;72.82;99938.98;1742851;81;20975;-71
2022/02/26 05:10:03;;;;;;;6.60;5.28;;;;;;;2.22;72.75;99937.09;1748658;81;20971;-70
2022/02/26 05:12:31;;;;;;;8.43;6.28;;;;;;;2.23;72.75;99943.19;1741133;80;20950;-70
2022/02/26 05:14:58;;;;;;;6.65;5.58;;;;;;;2.23;72.77;99947.13;1762534;81;21623;-70
2022/02/26 05:17:24;;;;;;;8.00;5.53;;;;;;;2.26;72.78;99957.41;1746389;81;21478;-69
2022/02/26 05:19:50;;;;;;;7.42;5.35;;;;;;;2.30;72.79;99958.40;1754586;81;21024;-70
2022/02/26 05:22:17;;;;;;;8.70;6.37;;;;;;;2.33;72.78;99960.81;1752502;80;20960;-70
2022/02/26 05:24:44;;;;;;;8.48;5.92;;;;;;;2.38;72.71;99962.65;1738718;81;21518;-70
2022/02/26 05:27:12;;;;;;;7.00;6.30;;;;;;;2.39;72.65;99969.59;1745697;81;21010;-70
2022/02/26 05:29:38;;;;;;;7.95;5.80;;;;;;;2.41;72.53;99964.22;1743245;81;21506;-69
2022/02/26 05:32:06;;;;;;;8.85;5.80;;;;;;;2.42;72.48;99968.53;1762076;81;20951;-70
2022/02/26 05:34:33;;;;;;;8.88;5.75;;;;;;;2.43;72.48;99976.76;1737773;81;20966;-70
2022/02/26 05:37:00;;;;;;;9.08;5.97;;;;;;;2.44;72.46;99977.98;1752908;81;20896;-70
2022/02/26 05:39:26;;;;;;;7.83;5.40;;;;;;;2.47;72.40;99976.93;1748869;81;21802;-70
2022/02/26 05:41:52;;;;;;;7.47;6.03;;;;;;;2.49;72.41;99979.81;1749952;80;20987;-70
2022/02/26 05:44:19;;;;;;;6.58;5.42;;;;;;;2.54;72.41;99985.20;1749010;81;20952;-70
2022/02/26 05:46:45;;;;;;;7.25;6.53;;;;;;;2.58;72.41;99985.37;1756951;81;21544;-68
2022/02/26 05:49:11;;;;;;;7.97;6.25;;;;;;;2.62;72.39;99988.13;1739334;81;21613;-70
2022/02/26 05:51:38;;;;;;;9.80;6.60;;;;;;;2.67;72.52;99991.27;1742700;81;21191;-71
2022/02/26 05:54:05;;;;;;;8.68;6.08;;;;;;;2.71;72.61;99988.31;1730245;81;20992;-70
2022/02/26 05:56:32;;;;;;;9.83;6.95;;;;;;;2.77;72.53;99994.92;1748973;81;21538;-69
2022/02/26 05:58:59;;;;;;;10.13;7.08;;;;;;;2.83;72.48;99999.76;1755928;81;20994;-70
2022/02/26 06:01:25;;;;;;;7.53;6.72;;;;;;;2.94;72.49;99994.12;1758560;81;20960;-71
2022/02/26 06:03:51;;;;;;;9.35;7.00;;;;;;;3.08;72.48;100002.30;1757049;81;21819;-71
2022/02/26 06:06:18;;;;;;;16.30;12.10;;;;;;;3.25;72.48;100003.25;1747566;81;20858;-70
2022/02/26 06:08:45;;;;;;;15.70;8.28;;;;;;;3.39;72.35;100003.06;1761055;81;21499;-70
2022/02/26 06:11:11;;;;;;;11.68;8.23;;;;;;;3.51;72.08;100010.08;1754955;81;20990;-70
2022/02/26 06:13:38;;;;;;;13.40;8.15;;;;;;;3.59;71.88;100012.98;1752730;81;21020;-71
2022/02/26 06:16:05;;;;;;;8.85;7.05;;;;;;;3.66;71.59;100019.47;1736860;81;21156;-71
2022/02/26 06:18:33;;;;;;;10.00;7.37;;;;;;;3.72;71.07;100018.17;1753068;81;21513;-71
2022/02/26 06:20:59;;;;;;;13.10;8.08;;;;;;;3.79;70.65;100019.86;1764370;81;20888;-69
2022/02/26 06:23:26;;;;;;;9.93;7.70;;;;;;;3.85;70.29;100022.89;1745751;81;21033;-70
2022/02/26 06:25:54;;;;;;;9.75;7.10;;;;;;;3.92;70.21;100024.09;1739135;81;20937;-70
2022/02/26 06:28:21;;;;;;;11.22;8.53;;;;;;;4.00;69.97;100032.73;1749478;81;21424;-70
2022/02/26 06:30:47;;;;;;;15.55;9.20;;;;;;;4.08;70.08;100039.58;1744213;81;20923;-69
2022/02/26 06:33:14;;;;;;;11.25;8.30;;;;;;;4.14;70.38;100040.44;1742451;80;20936;-72
2022/02/26 06:35:41;;;;;;;10.18;8.10;;;;;;;4.16;70.39;100042.48;1742432;81;20998;-70
2022/02/26 06:38:08;;;;;;;9.30;7.67;;;;;;;4.20;70.07;100042.59;1710328;82;21028;-70
2022/02/26 06:40:34;;;;;;;10.40;8.13;;;;;;;4.23;69.54;100047.63;1726117;82;21324;-69
2022/02/26 06:43:00;;;;;;;11.12;8.15;;;;;;;4.26;69.52;100046.93;1715512;82;21435;-70
2022/02/26 06:45:27;;;;;;;11.63;8.40;;;;;;;4.31;69.23;100054.00;1708277;82;20928;-72
2022/02/26 06:47:53;;;;;;;16.15;8.80;;;;;;;4.36;69.00;100058.91;1718426;82;21497;-71
2022/02/26 06:50:22;;;;;;;13.43;8.70;;;;;;;4.43;69.16;100056.66;1717601;82;20888;-71
2022/02/26 06:52:48;;;;;;;14.68;8.95;;;;;;;4.52;68.94;100060.73;1721665;82;21170;-68
2022/02/26 06:55:16;;;;;;;11.45;8.18;;;;;;;4.60;68.33;100060.98;1699430;82;21035;-72
2022/02/26 06:57:44;;;;;;;16.95;9.00;;;;;;;4.67;68.27;100056.91;1728148;82;21545;-72
2022/02/26 07:00:13;;;;;;;10.48;7.97;;;;;;;4.76;68.20;100057.53;1722542;82;21082;-70
2022/02/26 07:02:40;;;;;;;12.55;8.80;;;;;;;4.90;67.92;100069.64;1710527;82;21557;-70
2022/02/26 07:05:06;;;;;;;13.00;8.13;;;;;;;5.04;67.73;100068.05;1732260;82;21491;-71
2022/02/26 07:07:35;;;;;;;13.18;8.50;;;;;;;5.18;67.56;100073.09;1732326;82;20912;-72
2022/02/26 07:10:02;;;;;;;14.50;9.28;;;;;;;5.29;67.29;100065.13;1729835;82;21026;-72
2022/02/26 07:12:28;;;;;;;15.05;9.55;;;;;;;5.40;66.72;100074.83;1732199;82;21450;-70
2022/02/26 07:14:54;;;;;;;15.18;10.68;;;;;;;5.46;65.89;100082.27;1731428;82;20982;-72
2022/02/26 07:17:21;;;;;;;13.18;9.55;;;;;;;5.50;65.48;100085.03;1720296;82;21936;-69
2022/02/26 07:19:47;;;;;;;13.78;10.03;;;;;;;5.52;65.31;100091.02;1720353;82;20986;-70
2022/02/26 07:22:14;;;;;;;14.55;9.38;;;;;;;5.54;64.92;100094.37;1727668;82;21611;-72
2022/02/26 07:24:40;;;;;;;12.60;8.73;;;;;;;5.53;64.68;100103.23;1730812;82;20999;-69
2022/02/26 07:27:07;;;;;;;12.03;8.25;;;;;;;5.53;64.32;100099.27;1728753;82;21069;-71
2022/02/26 07:29:34;;;;;;;15.40;8.68;;;;;;;5.54;63.89;100098.33;1723360;82;21210;-70
2022/02/26 07:32:00;;;;;;;16.15;8.60;;;;;;;5.58;63.64;100103.70;1717198;82;20894;-68
2022/02/26 07:34:27;;;;;;;18.77;13.50;;;;;;;5.60;63.66;100107.08;1733921;82;21517;-67
2022/02/26 07:36:53;;;;;;;17.85;10.65;;;;;;;5.61;63.74;100107.41;1727355;81;20945;-71
2022/02/26 07:39:20;;;;;;;11.78;8.88;;;;;;;5.65;63.49;100108.86;1720993;81;21049;-68
2022/02/26 07:41:46;;;;;;;17.10;9.45;;;;;;;5.67;63.11;100110.89;1762953;80;21902;-70
2022/02/26 07:44:13;;;;;;;15.93;9.58;;;;;;;5.71;63.07;100116.27;1749321;81;21027;-73
2022/02/26 07:46:40;;;;;;;13.40;9.30;;;;;;;5.78;63.25;100116.62;1748817;80;21061;-69
2022/02/26 07:49:06;;;;;;;12.07;9.30;;;;;;;5.83;63.50;100123.21;1740311;81;21123;-70
2022/02/26 07:51:33;;;;;;;10.78;8.03;;;;;;;5.90;63.74;100119.13;1743190;80;21551;-66
2022/02/26 07:53:59;;;;;;;9.83;7.80;;;;;;;5.96;63.25;100120.44;1748948;81;21915;-70
2022/02/26 07:56:27;;;;;;;10.45;7.87;;;;;;;5.98;62.78;100122.46;1739526;81;20974;-68
2022/02/26 07:58:54;;;;;;;15.78;8.60;;;;;;;6.01;62.26;100128.82;1745855;80;20953;-68
2022/02/26 08:01:21;;;;;;;13.08;8.83;;;;;;;6.05;62.04;100130.23;1757021;81;20892;-68
2022/02/26 08:03:48;;;;;;;12.28;8.53;;;;;;;6.07;61.81;100137.57;1751542;80;20998;-69
2022/02/26 08:06:15;;;;;;;11.45;8.90;;;;;;;6.06;61.86;100136.73;1755603;80;21247;-67
2022/02/26 08:08:42;;;;;;;10.20;8.20;;;;;;;6.10;61.63;100143.93;1755950;81;21101;-70
2022/02/26 08:11:10;;;;;;;13.05;9.65;;;;;;;6.13;61.41;100141.85;1753700;80;20986;-70
2022/02/26 08:13:37;;;;;;;9.25;7.83;;;;;;;6.13;61.08;100143.66;1760323;81;20990;-70
2022/02/26 08:16:04;;;;;;;9.25;8.33;;;;;;;6.12;61.02;100139.35;1760225;80;21529;-68
2022/02/26 08:18:30;;;;;;;11.30;8.88;;;;;;;6.12;60.92;100144.64;1762761;80;21201;-68
2022/02/26 08:20:57;;;;;;;12.50;9.58;;;;;;;6.15;60.99;100154.45;1763527;80;21095;-68
2022/02/26 08:23:23;;;;;;;11.78;8.50;;;;;;;6.21;61.03;100147.83;1753868;80;21072;-69
2022/02/26 08:25:50;;;;;;;11.15;8.50;;;;;;;6.25;60.92;100145.30;1755871;80;21019;-71
2022/02/26 08:28:16;;;;;;;10.38;8.00;;;;;;;6.27;60.50;100153.94;1750939;81;20999;-71
2022/02/26 08:30:44;;;;;;;11.75;9.18;;;;;;;6.30;60.48;100159.45;1743392;81;20977;-72
2022/02/26 08:33:10;;;;;;;14.63;8.85;;;;;;;6.35;60.28;100156.78;1747092;80;21532;-72
2022/02/26 08:35:37;;;;;;;11.55;8.23;;;;;;;6.42;60.32;100158.42;1747685;80;20917;-69
2022/02/26 08:38:04;;;;;;;10.78;8.65;;;;;;;6.49;60.21;100162.25;1734794;81;21035;-69
2022/02/26 08:40:30;;;;;;;13.03;8.43;;;;;;;6.56;59.97;100158.97;1720556;80;21011;-67
2022/02/26 08:42:57;;;;;;;9.63;7.70;;;;;;;6.60;59.32;100160.38;1732868;80;21406;-71
2022/02/26 08:45:23;;;;;;;11.20;7.92;;;;;;;6.63;59.01;100156.63;1735004;81;20918;-71
2022/02/26 08:47:49;;;;;;;14.28;8.28;;;;;;;6.67;58.85;100160.20;1736875;81;21516;-70
2022/02/26 08:50:19;;;;;;;12.13;8.13;;;;;;;6.67;58.48;100169.45;1737324;80;20963;-70
2022/02/26 08:52:46;;;;;;;10.20;7.72;;;;;;;6.67;58.43;100167.32;1733690;80;20999;-70
2022/02/26 08:55:12;;;;;;;10.65;7.92;;;;;;;6.70;58.44;100171.03;1734529;80;21559;-68
2022/02/26 08:57:39;;;;;;;10.75;7.90;;;;;;;6.72;58.13;100173.06;1733203;81;21000;-70
2022/02/26 09:00:07;;;;;;;13.28;7.92;;;;;;;6.72;57.87;100172.58;1737271;80;21465;-71
2022/02/26 09:02:33;;;;;;;11.75;9.03;;;;;;;6.75;57.81;100175.45;1737585;82;20911;-71
2022/02/26 09:05:00;;;;;;;10.85;8.10;;;;;;;6.81;57.75;100177.55;1732875;80;21053;-69
2022/02/26 09:07:27;;;;;;;12.25;8.10;;;;;;;6.83;57.70;100189.68;1711098;80;21154;-71
2022/02/26 09:09:54;;;;;;;17.95;8.85;;;;;;;6.88;57.76;100188.47;1715166;81;20987;-71
2022/02/26 09:12:21;;;;;;;11.78;8.58;;;;;;;6.93;57.94;100187.12;1737205;81;20896;-71
2022/02/26 09:14:47;;;;;;;15.45;9.60;;;;;;;6.96;58.03;100190.80;1713622;82;21031;-71
2022/02/26 09:17:15;;;;;;;12.07;10.40;;;;;;;7.00;57.84;100193.55;1722053;80;21010;-70
2022/02/26 09:19:42;;;;;;;13.25;10.25;;;;;;;7.06;57.76;100194.36;1721870;80;22030;-69
2022/02/26 09:22:09;;;;;;;13.18;8.70;;;;;;;7.13;57.87;100199.48;1736239;82;21548;-71
2022/02/26 09:24:37;;;;;;;12.70;9.10;;;;;;;7.16;57.75;100205.84;1734266;80;21083;-69
2022/02/26 09:27:04;;;;;;;12.07;9.48;;;;;;;7.19;57.37;100213.52;1734905;82;20955;-67
2022/02/26 09:29:31;;;;;;;11.33;8.65;;;;;;;7.18;57.07;100214.48;1735591;80;21002;-68
2022/02/26 09:31:57;;;;;;;12.20;9.38;;;;;;;7.21;56.83;100210.73;1733863;81;21851;-69
2022/02/26 09:34:24;;;;;;;11.10;8.63;;;;;;;7.23;56.56;100209.63;1733585;81;20965;-68
2022/02/26 09:36:53;;;;;;;11.93;8.70;;;;;;;7.25;56.29;100216.09;1748903;80;21442;-69
2022/02/26 09:39:20;;;;;;;11.53;9.70;;;;;;;7.28;56.40;100218.01;1761433;80;20950;-66
2022/02/26 09:41:47;;;;;;;11.22;9.35;;;;;;;7.39;56.46;100213.96;1773138;80;21025;-74
2022/02/26 09:44:15;;;;;;;12.82;9.58;;;;;;;7.50;56.50;100213.52;1762114;80;21610;-68
2022/02/26 09:46:43;;;;;;;11.30;8.90;;;;;;;7.56;56.31;100215.12;1771413;80;21594;-69
2022/02/26 09:49:09;;;;;;;10.25;8.95;;;;;;;7.67;56.29;100216.84;1754494;80;20974;-69
2022/02/26 09:51:42;;;;;;;11.73;8.85;;;;;;;7.80;56.11;100209.50;1773253;80;21606;-71
2022/02/26 09:54:08;;;;;;;10.25;8.63;;;;;;;7.90;55.81;100217.02;1772391;80;21478;-68
2022/02/26 09:56:37;;;;;;;14.30;9.88;;;;;;;8.03;55.60;100209.63;1773110;80;21195;-69
2022/02/26 09:59:04;;;;;;;11.45;8.75;;;;;;;8.18;55.25;100214.91;1772336;80;20927;-70
2022/02/26 10:01:32;;;;;;;10.05;8.43;;;;;;;8.33;54.88;100214.88;1772437;80;21357;-66
2022/02/26 10:04:09;;;;;;;14.55;8.75;;;;;;;8.58;54.47;100221.44;1749616;80;20992;-70
2022/02/26 10:06:38;;;;;;;10.20;9.05;;;;;;;8.85;53.99;100226.03;1760990;80;21040;-70
2022/02/26 10:09:11;;;;;;;11.45;8.53;;;;;;;9.13;53.26;100223.82;1748488;80;21217;-71
2022/02/26 10:11:38;;;;;;;13.65;9.75;;;;;;;9.43;52.76;100224.95;1702384;82;21063;-67
2022/02/26 10:14:14;;;;;;;15.00;11.60;;;;;;;9.70;52.44;100223.63;1705823;82;21049;-67
2022/02/26 10:16:53;;;;;;;17.32;13.58;;;;;;;9.99;51.67;100229.28;1756079;80;20983;-68
2022/02/26 10:19:34;;;;;;;13.98;10.35;;;;;;;10.25;51.06;100227.63;1771164;80;20944;-67
2022/02/26 10:22:06;;;;;;;13.30;10.28;;;;;;;10.49;50.11;100226.55;1772551;80;21140;-72
2022/02/26 10:24:34;;;;;;;14.53;10.32;;;;;;;10.71;49.60;100233.25;1770161;80;21478;-69
2022/02/26 10:27:06;;;;;;;16.52;10.78;;;;;;;10.89;49.18;100230.07;1772690;80;20971;-67
2022/02/26 10:29:39;;;;;;;16.32;10.68;;;;;;;11.12;48.63;100228.58;1756494;80;20959;-73
2022/02/26 10:32:09;;;;;;;12.80;9.03;;;;;;;11.36;48.41;100230.58;1755429;80;20944;-73
2022/02/26 10:34:42;;;;;;;13.78;9.25;;;;;;;11.60;47.49;100228.87;1766684;81;21807;-72
2022/02/26 10:37:18;;;;;;;10.20;7.58;;;;;;;11.75;46.28;100231.33;1747135;80;20987;-71
2022/02/26 10:39:50;;;;;;;9.48;7.92;;;;;;;11.78;45.54;100232.00;1751610;80;20939;-70
2022/02/26 10:42:27;;;;;;;9.43;7.53;;;;;;;11.83;45.19;100230.53;1760617;80;21532;-71
2022/02/26 10:45:18;;;;;;;12.07;8.28;;;;;;;11.92;45.28;100224.22;1772082;80;20935;-72
2022/02/26 10:47:44;;;;;;;15.78;8.45;;;;;;;11.99;44.83;100227.91;1773175;80;21140;-69
2022/02/26 10:50:17;;;;;;;10.88;8.10;;;;;;;11.99;44.73;100225.76;1755284;80;21616;-71
2022/02/26 10:53:00;;;;;;;10.60;7.72;;;;;;;11.99;44.47;100229.23;1761901;80;21006;-70
2022/02/26 10:55:52;;;;;;;14.43;7.47;;;;;;;12.02;44.39;100228.92;1769118;80;21442;-69
2022/02/26 10:58:22;;;;;;;9.18;7.55;;;;;;;12.13;44.58;100231.30;1765706;80;20964;-69
2022/02/26 11:00:49;;;;;;;9.45;7.60;;;;;;;12.21;44.31;100231.33;1756517;80;21131;-68
2022/02/26 11:03:18;;;;;;;9.33;7.47;;;;;;;12.28;44.25;100235.00;1748582;80;22213;-70
2022/02/26 11:05:45;;;;;;;11.68;7.50;;;;;;;12.31;44.28;100243.18;1762817;80;21062;-70
2022/02/26 11:08:15;;;;;;;9.10;7.87;;;;;;;12.33;44.12;100239.34;1747653;80;21608;-74
2022/02/26 11:10:40;;;;;;;9.05;7.00;;;;;;;12.36;43.81;100236.36;1770072;80;21037;-73
2022/02/26 11:13:07;;;;;;;10.18;7.87;;;;;;;12.38;43.71;100241.55;1772846;80;21142;-72
2022/02/26 11:15:34;;;;;;;10.10;7.83;;;;;;;12.38;43.73;100238.36;1763108;80;20931;-69
2022/02/26 11:18:00;;;;;;;9.30;7.25;;;;;;;12.39;43.61;100244.53;1744808;80;21442;-68
2022/02/26 11:20:27;;;;;;;14.40;8.50;;;;;;;12.38;43.85;100239.69;1773843;80;20938;-69
2022/02/26 11:22:57;;;;;;;8.10;6.25;;;;;;;12.38;43.73;100238.36;1757943;80;20935;-70
2022/02/26 11:25:24;;;;;;;9.18;5.95;;;;;;;12.41;43.63;100241.72;1739262;80;21553;-70
2022/02/26 11:27:51;;;;;;;10.48;6.25;;;;;;;12.41;43.42;100242.53;1762778;81;20960;-69
2022/02/26 11:30:20;;;;;;;8.58;6.58;;;;;;;12.38;42.97;100240.22;1754345;80;21024;-68
2022/02/26 11:32:47;;;;;;;9.53;6.47;;;;;;;12.27;42.97;100238.69;1751101;80;21019;-68
2022/02/26 11:35:30;;;;;;;7.47;5.62;;;;;;;12.23;43.25;100239.99;1755729;80;21106;-70